Time;durP1;ratioP1;P1;durP2;ratioP2;P2;SDS_P1;SDS_P2;PMS_P1;PMS_P2;Temp;Humidity;BMP_temperature;BMP_pressure;BME280_temperature;BME280_humidity;BME280_pressure;Samples;Min_cycle;Max_cycle;Signal;HPM_P1;HPM_P2
2023/08/06 00:00:49;;;;;;;42.47;27.42;;;;;;;;;;5052372;28;20044;-70
2023/08/06 00:03:15;;;;;;;40.33;26.20;;;;;;;;;;5070070;28;20040;-71
2023/08/06 00:05:44;;;;;;;39.78;25.42;;;;;;;;;;5069970;28;20063;-71
2023/08/06 00:08:10;;;;;;;45.08;26.33;;;;;;;;;;5074871;28;20036;-69
2023/08/06 00:10:36;;;;;;;45.03;26.20;;;;;;;;;;5076988;28;20041;-70
2023/08/06 00:13:02;;;;;;;44.28;27.58;;;;;;;;;;5076219;28;20074;-70
2023/08/06 00:15:28;;;;;;;45.25;26.75;;;;;;;;;;5042432;28;20031;-70
2023/08/06 00:17:54;;;;;;;46.60;27.20;;;;;;;;;;5041915;28;20104;-70
2023/08/06 00:20:21;;;;;;;47.63;27.35;;;;;;;;;;5076725;28;20044;-70
2023/08/06 00:22:47;;;;;;;47.70;26.63;;;;;;;;;;5076251;28;20402;-70
2023/08/06 00:25:13;;;;;;;46.53;25.50;;;;;;;;;;5042086;28;20095;-70
2023/08/06 00:27:39;;;;;;;46.38;26.70;;;;;;;;;;5058471;28;20045;-69
2023/08/06 00:30:05;;;;;;;46.75;26.92;;;;;;;;;;5077161;28;20021;-70
2023/08/06 00:32:32;;;;;;;47.92;28.20;;;;;;;;;;5076393;28;20454;-70
2023/08/06 00:34:58;;;;;;;45.60;27.00;;;;;;;;;;5041925;28;20037;-70
2023/08/06 00:37:24;;;;;;;43.55;27.52;;;;;;;;;;5076709;28;20037;-70
2023/08/06 00:39:50;;;;;;;44.70;26.77;;;;;;;;;;5058625;28;20037;-70
2023/08/06 00:42:20;;;;;;;44.25;27.13;;;;;;;;;;5055093;28;20063;-70
2023/08/06 00:44:46;;;;;;;40.20;25.58;;;;;;;;;;5056235;28;20079;-70
2023/08/06 00:47:12;;;;;;;43.70;26.98;;;;;;;;;;5056560;28;20390;-70
2023/08/06 00:49:39;;;;;;;45.58;27.15;;;;;;;;;;5048858;28;20111;-70
2023/08/06 00:52:06;;;;;;;43.22;26.25;;;;;;;;;;5038739;28;20036;-70
2023/08/06 00:54:32;;;;;;;42.88;26.40;;;;;;;;;;5056292;28;20056;-70
2023/08/06 00:56:59;;;;;;;46.97;26.85;;;;;;;;;;5056454;28;20041;-71
2023/08/06 00:59:26;;;;;;;43.10;26.55;;;;;;;;;;5056719;28;20044;-70
2023/08/06 01:01:52;;;;;;;43.00;25.25;;;;;;;;;;5038718;28;20037;-70
2023/08/06 01:04:18;;;;;;;47.22;27.38;;;;;;;;;;5071710;28;20020;-70
2023/08/06 01:07:03;;;;;;;41.30;26.50;;;;;;;;;;5074128;28;20119;-70
2023/08/06 01:09:32;;;;;;;43.33;25.85;;;;;;;;;;5074386;28;20025;-71
2023/08/06 01:12:04;;;;;;;41.72;25.17;;;;;;;;;;5074966;28;20029;-68
2023/08/06 01:14:34;;;;;;;45.95;27.05;;;;;;;;;;5074789;28;20059;-71
2023/08/06 01:17:02;;;;;;;49.13;28.58;;;;;;;;;;5075003;28;20028;-70
2023/08/06 01:19:28;;;;;;;42.63;26.83;;;;;;;;;;5073590;28;20120;-70
2023/08/06 01:21:54;;;;;;;46.20;27.70;;;;;;;;;;5072868;28;20037;-70
2023/08/06 01:24:20;;;;;;;46.25;27.73;;;;;;;;;;5072031;28;20032;-69
2023/08/06 01:26:59;;;;;;;50.20;27.75;;;;;;;;;;5071726;28;20037;-70
2023/08/06 01:29:25;;;;;;;48.22;26.77;;;;;;;;;;5073225;28;20060;-71
2023/08/06 01:31:53;;;;;;;49.38;27.52;;;;;;;;;;5073105;28;20031;-71
2023/08/06 01:34:24;;;;;;;47.65;27.58;;;;;;;;;;5054656;28;20024;-70
2023/08/06 01:36:51;;;;;;;50.85;29.13;;;;;;;;;;5071197;28;20033;-70
2023/08/06 01:39:20;;;;;;;48.58;27.40;;;;;;;;;;5071926;28;20032;-71
2023/08/06 01:41:47;;;;;;;56.97;29.52;;;;;;;;;;5055200;28;20058;-70
2023/08/06 01:44:13;;;;;;;55.17;28.10;;;;;;;;;;5072523;28;20209;-70
2023/08/06 01:46:39;;;;;;;56.42;30.13;;;;;;;;;;5070915;28;20033;-70
2023/08/06 01:49:07;;;;;;;51.67;28.80;;;;;;;;;;5072282;28;20033;-70
2023/08/06 01:51:33;;;;;;;51.80;29.52;;;;;;;;;;5072384;28;20389;-70
2023/08/06 01:53:59;;;;;;;54.75;30.77;;;;;;;;;;5072331;28;20020;-70
2023/08/06 01:56:25;;;;;;;51.08;29.92;;;;;;;;;;5072425;28;20036;-70
2023/08/06 01:58:51;;;;;;;62.00;31.65;;;;;;;;;;5070956;28;20106;-70
2023/08/06 02:01:18;;;;;;;56.33;32.60;;;;;;;;;;5070574;28;20486;-70
2023/08/06 02:03:44;;;;;;;58.47;31.75;;;;;;;;;;5070289;28;20510;-70
2023/08/06 02:06:11;;;;;;;60.63;32.25;;;;;;;;;;5070573;28;20062;-71
2023/08/06 02:08:37;;;;;;;53.40;30.67;;;;;;;;;;5070540;28;20031;-70
2023/08/06 02:11:03;;;;;;;60.80;32.50;;;;;;;;;;5072040;28;20025;-70
2023/08/06 02:13:30;;;;;;;54.35;32.28;;;;;;;;;;5072119;28;20485;-71
2023/08/06 02:15:56;;;;;;;58.92;32.08;;;;;;;;;;5053970;28;20131;-70
2023/08/06 02:18:22;;;;;;;61.15;33.75;;;;;;;;;;5070762;28;20124;-71
2023/08/06 02:20:58;;;;;;;59.88;32.58;;;;;;;;;;5070528;28;20028;-70
2023/08/06 02:23:25;;;;;;;57.30;32.88;;;;;;;;;;5069142;28;20096;-70
2023/08/06 02:26:00;;;;;;;65.00;34.40;;;;;;;;;;5069712;28;20050;-71
2023/08/06 02:28:27;;;;;;;63.20;34.90;;;;;;;;;;5071764;28;20051;-70
2023/08/06 02:30:53;;;;;;;67.50;35.72;;;;;;;;;;5071041;28;20051;-70
2023/08/06 02:33:19;;;;;;;70.93;36.30;;;;;;;;;;5071727;28;20035;-70
2023/08/06 02:35:46;;;;;;;63.63;36.45;;;;;;;;;;5071719;28;20119;-70
2023/08/06 02:38:12;;;;;;;64.82;35.85;;;;;;;;;;5071757;28;20037;-70
2023/08/06 02:40:43;;;;;;;69.90;37.70;;;;;;;;;;5070584;28;20485;-69
2023/08/06 02:43:09;;;;;;;67.03;36.63;;;;;;;;;;5073375;28;20039;-70
2023/08/06 02:45:35;;;;;;;69.75;37.65;;;;;;;;;;5073730;28;20415;-69
2023/08/06 02:48:02;;;;;;;61.47;35.95;;;;;;;;;;5056640;28;20497;-69
2023/08/06 02:50:29;;;;;;;68.40;37.90;;;;;;;;;;5071507;28;20051;-71
2023/08/06 02:52:55;;;;;;;70.85;38.97;;;;;;;;;;5081978;28;20421;-70
2023/08/06 02:55:21;;;;;;;75.50;39.78;;;;;;;;;;5073662;28;20497;-71
2023/08/06 02:57:49;;;;;;;85.20;42.88;;;;;;;;;;5073697;28;20044;-70
2023/08/06 03:00:15;;;;;;;73.18;40.00;;;;;;;;;;5057169;28;20040;-71
2023/08/06 03:02:42;;;;;;;78.65;41.70;;;;;;;;;;5039998;28;20036;-70
2023/08/06 03:05:22;;;;;;;78.47;41.50;;;;;;;;;;5073434;28;20036;-71
2023/08/06 03:07:49;;;;;;;73.25;40.15;;;;;;;;;;5039853;28;20278;-70
2023/08/06 03:10:20;;;;;;;80.18;43.03;;;;;;;;;;5073076;28;20093;-70
2023/08/06 03:12:48;;;;;;;75.47;41.38;;;;;;;;;;5072718;28;20024;-70
2023/08/06 03:15:14;;;;;;;89.72;44.15;;;;;;;;;;5072810;28;20081;-71
2023/08/06 03:17:44;;;;;;;85.50;42.55;;;;;;;;;;5072743;28;20579;-70
2023/08/06 03:20:10;;;;;;;87.50;45.35;;;;;;;;;;5056557;28;20176;-70
2023/08/06 03:22:37;;;;;;;84.88;44.10;;;;;;;;;;5072532;28;20485;-70
2023/08/06 03:25:04;;;;;;;86.38;44.45;;;;;;;;;;5072643;28;20043;-70
2023/08/06 03:27:30;;;;;;;93.63;45.55;;;;;;;;;;5072828;28;20131;-70
2023/08/06 03:29:56;;;;;;;103.40;45.90;;;;;;;;;;5072314;28;20032;-70
2023/08/06 03:32:25;;;;;;;99.53;46.67;;;;;;;;;;5072410;28;20044;-70
2023/08/06 03:34:53;;;;;;;81.97;42.95;;;;;;;;;;5056011;28;20442;-70
2023/08/06 03:37:21;;;;;;;99.20;46.60;;;;;;;;;;5056037;28;20049;-70
2023/08/06 03:39:47;;;;;;;98.18;46.20;;;;;;;;;;5091042;28;20074;-70
2023/08/06 03:42:14;;;;;;;103.00;48.40;;;;;;;;;;5055996;28;20769;-71
2023/08/06 03:44:40;;;;;;;104.57;48.03;;;;;;;;;;5072700;28;20024;-70
2023/08/06 03:47:08;;;;;;;114.07;49.30;;;;;;;;;;5072474;28;20028;-70
2023/08/06 03:49:34;;;;;;;105.90;48.00;;;;;;;;;;5055771;28;20032;-70
2023/08/06 03:52:01;;;;;;;108.10;48.78;;;;;;;;;;5072153;28;20040;-69
2023/08/06 03:54:27;;;;;;;122.47;48.85;;;;;;;;;;5090648;28;20016;-69
2023/08/06 03:56:54;;;;;;;89.25;43.90;;;;;;;;;;5072691;28;20028;-70
2023/08/06 03:59:20;;;;;;;88.60;43.55;;;;;;;;;;5056195;28;20036;-70
2023/08/06 04:01:47;;;;;;;98.72;42.55;;;;;;;;;;5056010;28;20040;-71
2023/08/06 04:04:13;;;;;;;86.95;40.22;;;;;;;;;;5055773;28;20060;-70
2023/08/06 04:06:39;;;;;;;77.45;36.08;;;;;;;;;;5090511;28;20028;-69
2023/08/06 04:09:06;;;;;;;61.60;32.35;;;;;;;;;;5090744;28;20055;-70
2023/08/06 04:11:32;;;;;;;55.45;29.63;;;;;;;;;;5072743;28;20035;-70
2023/08/06 04:13:58;;;;;;;44.40;26.27;;;;;;;;;;5072920;28;20119;-70
2023/08/06 04:16:26;;;;;;;57.05;29.52;;;;;;;;;;5072560;28;20527;-70
2023/08/06 04:18:53;;;;;;;46.83;26.33;;;;;;;;;;5072510;28;20058;-70
2023/08/06 04:21:19;;;;;;;64.50;30.75;;;;;;;;;;5071677;28;20028;-70
2023/08/06 04:23:46;;;;;;;82.40;36.42;;;;;;;;;;5071271;28;20177;-71
2023/08/06 04:26:13;;;;;;;85.35;37.90;;;;;;;;;;5071828;28;20137;-69
2023/08/06 04:28:39;;;;;;;83.75;40.53;;;;;;;;;;5071719;28;20030;-69
2023/08/06 04:31:05;;;;;;;90.18;39.50;;;;;;;;;;5072094;28;20115;-69
2023/08/06 04:33:33;;;;;;;96.25;40.80;;;;;;;;;;5090597;28;20040;-69
2023/08/06 04:36:04;;;;;;;96.80;42.72;;;;;;;;;;5071548;28;20032;-70
2023/08/06 04:38:31;;;;;;;79.53;38.30;;;;;;;;;;5055306;28;20063;-70
2023/08/06 04:40:58;;;;;;;82.93;37.88;;;;;;;;;;5071394;28;20055;-70
2023/08/06 04:43:24;;;;;;;79.93;35.20;;;;;;;;;;5071980;28;20078;-70
2023/08/06 04:45:53;;;;;;;69.10;32.92;;;;;;;;;;5055144;28;20430;-70
2023/08/06 04:48:19;;;;;;;74.57;35.88;;;;;;;;;;5089939;28;20036;-70
2023/08/06 04:50:49;;;;;;;77.53;36.97;;;;;;;;;;5089867;28;20052;-70
2023/08/06 04:53:16;;;;;;;77.45;36.60;;;;;;;;;;5072173;28;20028;-69
2023/08/06 04:55:42;;;;;;;84.65;37.35;;;;;;;;;;5093604;28;20397;-69
2023/08/06 04:58:09;;;;;;;79.50;37.40;;;;;;;;;;5094285;28;20059;-71
2023/08/06 05:00:36;;;;;;;83.50;36.10;;;;;;;;;;5093617;28;20066;-71
2023/08/06 05:03:02;;;;;;;77.78;36.70;;;;;;;;;;5093800;28;20131;-69
2023/08/06 05:05:28;;;;;;;73.55;37.35;;;;;;;;;;5093802;28;20042;-70
2023/08/06 05:07:56;;;;;;;66.97;34.28;;;;;;;;;;5093617;28;20077;-70
2023/08/06 05:10:22;;;;;;;71.90;34.47;;;;;;;;;;5093547;28;20102;-69
2023/08/06 05:12:48;;;;;;;77.72;36.67;;;;;;;;;;5058635;28;20024;-70
2023/08/06 05:15:14;;;;;;;77.75;35.40;;;;;;;;;;5093733;28;20488;-69
2023/08/06 05:17:40;;;;;;;70.53;33.42;;;;;;;;;;5093743;28;20044;-69
2023/08/06 05:20:07;;;;;;;64.38;31.52;;;;;;;;;;5075597;28;20039;-70
2023/08/06 05:22:33;;;;;;;68.25;31.95;;;;;;;;;;5093404;28;20497;-70
2023/08/06 05:24:59;;;;;;;68.07;29.95;;;;;;;;;;5093419;28;20047;-70
2023/08/06 05:27:25;;;;;;;67.13;29.08;;;;;;;;;;5092521;28;20067;-70
2023/08/06 05:29:55;;;;;;;50.80;25.88;;;;;;;;;;5093169;28;20077;-70
2023/08/06 05:32:22;;;;;;;43.13;22.45;;;;;;;;;;5093211;28;20028;-70
2023/08/06 05:34:48;;;;;;;31.48;15.93;;;;;;;;;;5093191;28;20126;-70
2023/08/06 05:37:14;;;;;;;15.48;10.23;;;;;;;;;;5092898;28;20055;-70
2023/08/06 05:39:40;;;;;;;13.90;8.38;;;;;;;;;;5093014;28;20125;-70
2023/08/06 05:42:06;;;;;;;10.40;6.95;;;;;;;;;;5092511;28;20080;-69
2023/08/06 05:44:32;;;;;;;11.60;6.07;;;;;;;;;;5074871;28;20052;-70
2023/08/06 05:46:59;;;;;;;10.93;6.38;;;;;;;;;;5074614;28;20444;-69
2023/08/06 05:49:25;;;;;;;10.38;6.82;;;;;;;;;;5062683;28;20067;-70
2023/08/06 05:51:53;;;;;;;12.13;7.10;;;;;;;;;;5072658;28;20028;-69
2023/08/06 05:54:19;;;;;;;15.05;7.88;;;;;;;;;;5054850;28;20036;-70
2023/08/06 05:56:45;;;;;;;14.40;9.13;;;;;;;;;;5054207;28;20123;-71
2023/08/06 05:59:11;;;;;;;18.38;11.65;;;;;;;;;;5072192;28;20048;-70
2023/08/06 06:01:38;;;;;;;21.98;12.45;;;;;;;;;;5072246;28;20060;-70
2023/08/06 06:04:04;;;;;;;17.83;11.57;;;;;;;;;;5037697;28;20040;-70
2023/08/06 06:06:30;;;;;;;11.63;9.02;;;;;;;;;;5071269;28;20028;-69
2023/08/06 06:08:56;;;;;;;14.57;9.10;;;;;;;;;;5072116;28;20043;-69
2023/08/06 06:11:22;;;;;;;12.35;9.30;;;;;;;;;;5071953;28;20025;-69
2023/08/06 06:13:51;;;;;;;10.40;9.02;;;;;;;;;;5054214;28;20024;-69
2023/08/06 06:16:18;;;;;;;14.30;10.02;;;;;;;;;;5053800;28;20021;-69
2023/08/06 06:18:44;;;;;;;14.13;9.75;;;;;;;;;;5054078;28;20094;-69
2023/08/06 06:21:11;;;;;;;13.45;10.95;;;;;;;;;;5077010;28;20052;-69
2023/08/06 06:23:37;;;;;;;14.45;10.73;;;;;;;;;;5073672;28;20031;-69
2023/08/06 06:26:03;;;;;;;13.70;11.55;;;;;;;;;;5073881;28;20406;-69
2023/08/06 06:28:29;;;;;;;15.50;11.65;;;;;;;;;;5092410;28;20060;-70
2023/08/06 06:31:00;;;;;;;15.13;12.13;;;;;;;;;;5092194;28;20056;-70
2023/08/06 06:33:27;;;;;;;15.35;12.20;;;;;;;;;;5092175;28;20024;-70
2023/08/06 06:35:53;;;;;;;16.58;11.90;;;;;;;;;;5091967;28;20500;-70
2023/08/06 06:38:19;;;;;;;14.85;11.40;;;;;;;;;;5074694;28;20032;-71
2023/08/06 06:40:54;;;;;;;14.20;11.38;;;;;;;;;;5091867;28;20070;-69
2023/08/06 06:43:20;;;;;;;13.88;12.13;;;;;;;;;;5091898;28;20111;-69
2023/08/06 06:45:46;;;;;;;14.75;12.23;;;;;;;;;;5073628;28;20488;-69
2023/08/06 06:48:12;;;;;;;15.80;11.45;;;;;;;;;;5090171;28;20042;-69
2023/08/06 06:50:39;;;;;;;15.65;12.10;;;;;;;;;;5071328;28;20028;-69
2023/08/06 06:53:05;;;;;;;18.63;13.68;;;;;;;;;;5053432;28;20028;-69
2023/08/06 06:55:31;;;;;;;18.20;13.85;;;;;;;;;;5071368;28;20037;-71
2023/08/06 06:57:57;;;;;;;18.77;14.10;;;;;;;;;;5053518;28;20503;-70
2023/08/06 07:00:23;;;;;;;23.63;15.73;;;;;;;;;;5036599;28;20039;-70
2023/08/06 07:02:49;;;;;;;29.25;16.38;;;;;;;;;;5071289;28;20040;-73
2023/08/06 07:05:16;;;;;;;23.13;16.25;;;;;;;;;;5071112;28;20086;-70
2023/08/06 07:07:42;;;;;;;17.83;15.00;;;;;;;;;;5052922;28;20036;-70
2023/08/06 07:10:08;;;;;;;20.40;15.70;;;;;;;;;;5070975;28;20051;-70
2023/08/06 07:12:36;;;;;;;23.38;14.60;;;;;;;;;;5070802;28;20028;-68
2023/08/06 07:15:04;;;;;;;19.58;14.32;;;;;;;;;;5070596;28;20076;-69
2023/08/06 07:17:30;;;;;;;21.77;15.85;;;;;;;;;;5070206;28;20021;-69
2023/08/06 07:19:56;;;;;;;17.05;12.35;;;;;;;;;;5070431;28;20051;-69
2023/08/06 07:22:23;;;;;;;14.40;11.50;;;;;;;;;;5070736;28;20032;-69
2023/08/06 07:24:49;;;;;;;15.48;12.52;;;;;;;;;;5070621;28;20028;-69
2023/08/06 07:27:15;;;;;;;15.82;11.40;;;;;;;;;;5052689;28;20111;-69
2023/08/06 07:29:41;;;;;;;13.48;10.00;;;;;;;;;;5052682;28;20025;-69
2023/08/06 07:32:07;;;;;;;12.27;9.73;;;;;;;;;;5052561;28;20036;-70
2023/08/06 07:34:33;;;;;;;12.85;9.05;;;;;;;;;;5051369;28;20112;-69
2023/08/06 07:37:00;;;;;;;15.88;9.10;;;;;;;;;;5070101;28;20422;-70
2023/08/06 07:39:28;;;;;;;12.75;8.35;;;;;;;;;;5035854;28;20461;-70
2023/08/06 07:41:54;;;;;;;15.30;9.20;;;;;;;;;;5069794;28;20098;-70
2023/08/06 07:44:20;;;;;;;11.10;8.73;;;;;;;;;;5070171;28;20068;-70
2023/08/06 07:46:47;;;;;;;13.73;8.85;;;;;;;;;;5052257;28;20037;-70
2023/08/06 07:49:13;;;;;;;12.38;8.30;;;;;;;;;;5070333;28;20029;-70
2023/08/06 07:51:39;;;;;;;11.18;9.32;;;;;;;;;;5070243;28;20032;-70
2023/08/06 07:54:06;;;;;;;13.45;9.52;;;;;;;;;;5070484;28;20147;-69
2023/08/06 07:56:32;;;;;;;13.98;10.43;;;;;;;;;;5089645;28;20473;-69
2023/08/06 07:58:58;;;;;;;11.10;9.27;;;;;;;;;;5091020;28;20044;-70
2023/08/06 08:01:24;;;;;;;13.80;9.57;;;;;;;;;;5090505;28;20036;-69
2023/08/06 08:03:50;;;;;;;13.90;10.40;;;;;;;;;;5039095;28;20062;-69
2023/08/06 08:06:16;;;;;;;13.95;9.65;;;;;;;;;;5091092;28;20032;-69
2023/08/06 08:08:43;;;;;;;14.15;10.82;;;;;;;;;;5091097;28;20089;-69
2023/08/06 08:11:09;;;;;;;14.65;10.88;;;;;;;;;;5090462;28;20065;-69
2023/08/06 08:13:35;;;;;;;16.50;12.15;;;;;;;;;;5072313;28;20032;-68
2023/08/06 08:16:02;;;;;;;17.40;12.63;;;;;;;;;;5072531;28;20040;-69
2023/08/06 08:18:29;;;;;;;16.02;12.68;;;;;;;;;;5090278;28;20102;-69
2023/08/06 08:20:55;;;;;;;16.10;12.57;;;;;;;;;;5071998;28;20052;-70
2023/08/06 08:23:22;;;;;;;17.42;12.63;;;;;;;;;;5090182;28;20114;-69
2023/08/06 08:25:48;;;;;;;24.40;13.10;;;;;;;;;;5089442;28;20043;-70
2023/08/06 08:28:14;;;;;;;19.33;12.25;;;;;;;;;;5091621;28;20113;-69
2023/08/06 08:30:41;;;;;;;17.33;11.93;;;;;;;;;;5076134;28;20497;-70
2023/08/06 08:33:07;;;;;;;17.42;12.10;;;;;;;;;;5094187;28;20052;-69
2023/08/06 08:35:34;;;;;;;16.10;12.40;;;;;;;;;;5094361;28;20036;-69
2023/08/06 08:38:00;;;;;;;16.65;11.75;;;;;;;;;;5076228;28;20028;-69
2023/08/06 08:40:30;;;;;;;13.45;11.80;;;;;;;;;;5076064;28;20115;-69
2023/08/06 08:42:56;;;;;;;20.33;11.88;;;;;;;;;;5093808;28;20065;-69
2023/08/06 08:45:22;;;;;;;18.45;10.95;;;;;;;;;;5093832;28;20040;-68
2023/08/06 08:47:49;;;;;;;25.98;12.93;;;;;;;;;;5093980;28;20043;-69
2023/08/06 08:50:15;;;;;;;19.75;12.52;;;;;;;;;;5074568;28;20032;-69
2023/08/06 08:52:41;;;;;;;17.30;11.70;;;;;;;;;;5073275;28;20031;-69
2023/08/06 08:55:08;;;;;;;20.65;12.02;;;;;;;;;;5073073;28;20082;-69
2023/08/06 08:57:34;;;;;;;23.85;12.23;;;;;;;;;;5055605;28;20048;-69
2023/08/06 09:00:00;;;;;;;22.65;12.50;;;;;;;;;;5073715;28;20029;-70
2023/08/06 09:02:29;;;;;;;26.77;11.65;;;;;;;;;;5055716;28;20932;-69
2023/08/06 09:05:01;;;;;;;20.38;12.63;;;;;;;;;;5054747;28;20032;-69
2023/08/06 09:07:28;;;;;;;19.95;12.73;;;;;;;;;;5055516;28;20405;-69
2023/08/06 09:09:54;;;;;;;18.85;11.07;;;;;;;;;;5073702;28;20439;-68
2023/08/06 09:12:21;;;;;;;20.65;11.27;;;;;;;;;;5073283;28;20024;-70
2023/08/06 09:14:47;;;;;;;20.85;10.75;;;;;;;;;;5055384;28;20036;-69
2023/08/06 09:17:14;;;;;;;19.92;10.90;;;;;;;;;;5073629;28;20045;-70
2023/08/06 09:19:48;;;;;;;16.42;9.48;;;;;;;;;;5055847;28;20485;-70
2023/08/06 09:22:14;;;;;;;18.55;10.95;;;;;;;;;;5055982;28;20036;-70
2023/08/06 09:24:43;;;;;;;14.32;10.25;;;;;;;;;;5072897;28;20039;-70
2023/08/06 09:27:16;;;;;;;16.48;9.75;;;;;;;;;;5072874;28;20378;-70
2023/08/06 09:29:43;;;;;;;13.30;9.57;;;;;;;;;;5072984;28;20035;-70
2023/08/06 09:32:09;;;;;;;18.55;10.85;;;;;;;;;;5073143;28;20029;-70
2023/08/06 09:34:35;;;;;;;16.05;9.57;;;;;;;;;;5072854;28;20028;-70
2023/08/06 09:37:01;;;;;;;14.77;8.82;;;;;;;;;;5072836;28;20050;-70
2023/08/06 09:39:28;;;;;;;16.23;9.25;;;;;;;;;;5072796;28;20128;-70
2023/08/06 09:41:58;;;;;;;14.48;7.95;;;;;;;;;;5054627;28;20059;-70
2023/08/06 09:44:25;;;;;;;15.63;8.70;;;;;;;;;;5072621;28;20043;-69
2023/08/06 09:46:52;;;;;;;19.08;9.30;;;;;;;;;;5054928;28;20028;-70
2023/08/06 09:49:19;;;;;;;16.13;8.52;;;;;;;;;;5084261;28;20055;-70
2023/08/06 09:51:46;;;;;;;13.15;8.15;;;;;;;;;;5092862;28;20028;-70
2023/08/06 09:54:13;;;;;;;16.20;7.45;;;;;;;;;;5092537;28;20024;-70
2023/08/06 09:56:39;;;;;;;17.10;9.43;;;;;;;;;;5092509;28;20040;-70
2023/08/06 09:59:08;;;;;;;13.15;7.53;;;;;;;;;;5092415;28;20036;-70
2023/08/06 10:01:35;;;;;;;15.98;8.45;;;;;;;;;;5092472;28;20461;-70
2023/08/06 10:04:02;;;;;;;12.38;7.28;;;;;;;;;;5074008;28;20032;-70
2023/08/06 10:06:29;;;;;;;13.90;7.68;;;;;;;;;;5092176;28;20070;-69
2023/08/06 10:08:55;;;;;;;10.38;6.88;;;;;;;;;;5092171;28;20126;-70
2023/08/06 10:11:22;;;;;;;12.25;6.82;;;;;;;;;;5074140;28;20115;-70
2023/08/06 10:13:49;;;;;;;12.73;6.63;;;;;;;;;;5092414;28;20028;-69
2023/08/06 10:16:15;;;;;;;13.75;6.18;;;;;;;;;;5092195;28;20119;-69
2023/08/06 10:18:42;;;;;;;7.93;5.60;;;;;;;;;;5092683;28;20475;-69
2023/08/06 10:21:09;;;;;;;18.08;7.78;;;;;;;;;;5091907;28;20034;-69
2023/08/06 10:23:38;;;;;;;11.93;5.65;;;;;;;;;;5091623;28;20036;-68
2023/08/06 10:26:04;;;;;;;11.10;6.03;;;;;;;;;;5091179;28;20024;-70
2023/08/06 10:28:39;;;;;;;10.48;6.68;;;;;;;;;;5092533;28;20059;-69
2023/08/06 10:31:06;;;;;;;10.98;5.78;;;;;;;;;;5092063;28;20039;-69
2023/08/06 10:33:45;;;;;;;10.18;6.00;;;;;;;;;;5091941;28;20055;-69
2023/08/06 10:36:12;;;;;;;10.30;6.75;;;;;;;;;;5092037;28;20036;-70
2023/08/06 10:38:45;;;;;;;13.07;6.32;;;;;;;;;;5092486;28;20098;-69
2023/08/06 10:41:28;;;;;;;11.02;5.55;;;;;;;;;;5092156;28;20044;-69
2023/08/06 10:44:09;;;;;;;11.45;5.22;;;;;;;;;;5091851;28;20043;-69
2023/08/06 10:46:35;;;;;;;10.98;4.60;;;;;;;;;;5091832;28;20040;-70
2023/08/06 10:49:02;;;;;;;9.18;4.30;;;;;;;;;;5083165;28;20028;-70
2023/08/06 10:51:28;;;;;;;10.30;4.45;;;;;;;;;;5070575;28;20043;-70
2023/08/06 10:53:54;;;;;;;10.77;4.40;;;;;;;;;;5071069;28;20031;-70
2023/08/06 10:56:27;;;;;;;8.68;3.92;;;;;;;;;;5071839;28;20051;-70
2023/08/06 10:58:57;;;;;;;7.80;3.65;;;;;;;;;;5071357;28;20044;-70
2023/08/06 11:01:23;;;;;;;9.50;3.92;;;;;;;;;;5071410;28;20036;-70
2023/08/06 11:03:50;;;;;;;8.32;3.22;;;;;;;;;;5053535;28;20076;-70
2023/08/06 11:06:20;;;;;;;6.38;3.38;;;;;;;;;;5053292;28;20044;-70
2023/08/06 11:08:53;;;;;;;6.90;3.80;;;;;;;;;;5053433;28;20033;-70
2023/08/06 11:11:20;;;;;;;9.25;3.72;;;;;;;;;;5071318;28;20346;-70
2023/08/06 11:13:47;;;;;;;10.48;3.38;;;;;;;;;;5053679;28;20044;-69
2023/08/06 11:16:17;;;;;;;5.70;2.85;;;;;;;;;;5071144;28;20032;-69
2023/08/06 11:18:43;;;;;;;18.73;4.72;;;;;;;;;;5071468;28;20127;-69
2023/08/06 11:21:09;;;;;;;6.15;2.83;;;;;;;;;;5071158;28;20041;-70
2023/08/06 11:23:36;;;;;;;10.63;3.10;;;;;;;;;;5053203;28;20036;-70
2023/08/06 11:26:02;;;;;;;6.25;2.97;;;;;;;;;;5052707;28;20033;-70
2023/08/06 11:28:29;;;;;;;6.80;2.83;;;;;;;;;;5070862;28;20040;-69
2023/08/06 11:30:56;;;;;;;4.22;2.60;;;;;;;;;;5070734;28;20142;-70
2023/08/06 11:33:26;;;;;;;9.27;2.75;;;;;;;;;;5052854;28;20487;-70
2023/08/06 11:35:52;;;;;;;6.03;2.58;;;;;;;;;;5070415;28;20036;-70
2023/08/06 11:38:19;;;;;;;8.13;3.08;;;;;;;;;;5070241;28;20143;-70
2023/08/06 11:40:45;;;;;;;8.15;3.25;;;;;;;;;;5069981;28;20036;-69
2023/08/06 11:43:13;;;;;;;6.97;2.40;;;;;;;;;;5052341;28;20029;-69
2023/08/06 11:45:39;;;;;;;8.95;2.80;;;;;;;;;;5069900;28;20035;-69
2023/08/06 11:48:06;;;;;;;7.70;2.50;;;;;;;;;;5070875;28;20032;-69
2023/08/06 11:50:33;;;;;;;8.70;3.00;;;;;;;;;;5072340;28;20500;-69
2023/08/06 11:53:00;;;;;;;7.32;2.17;;;;;;;;;;5072002;28;20036;-69
2023/08/06 11:55:28;;;;;;;6.40;2.38;;;;;;;;;;5072411;28;20039;-69
2023/08/06 11:57:54;;;;;;;5.05;2.28;;;;;;;;;;5091868;28;20044;-70
2023/08/06 12:00:22;;;;;;;6.63;2.63;;;;;;;;;;5090602;28;20063;-69
2023/08/06 12:02:49;;;;;;;5.60;2.28;;;;;;;;;;5089989;28;20040;-68
2023/08/06 12:05:16;;;;;;;5.15;2.17;;;;;;;;;;5072685;28;20036;-69
2023/08/06 12:07:43;;;;;;;5.45;2.28;;;;;;;;;;5090638;28;20042;-69
2023/08/06 12:10:09;;;;;;;9.05;2.30;;;;;;;;;;5090525;28;20030;-69
2023/08/06 12:12:36;;;;;;;6.28;2.90;;;;;;;;;;5090506;28;20437;-69
2023/08/06 12:15:03;;;;;;;7.70;2.70;;;;;;;;;;5090284;28;20050;-69
2023/08/06 12:17:30;;;;;;;7.97;2.95;;;;;;;;;;5090597;28;20032;-69
2023/08/06 12:19:56;;;;;;;5.10;2.60;;;;;;;;;;5072580;28;20032;-69
2023/08/06 12:22:22;;;;;;;8.73;3.00;;;;;;;;;;5090403;28;20032;-69
2023/08/06 12:24:48;;;;;;;9.70;2.92;;;;;;;;;;5090268;28;20031;-69
2023/08/06 12:27:17;;;;;;;5.68;3.38;;;;;;;;;;5090763;28;20115;-69
2023/08/06 12:29:53;;;;;;;5.57;2.92;;;;;;;;;;5072133;28;20028;-69
2023/08/06 12:32:19;;;;;;;7.25;2.97;;;;;;;;;;5072364;28;20032;-70
2023/08/06 12:34:45;;;;;;;7.60;3.17;;;;;;;;;;5089896;28;20091;-70
2023/08/06 12:37:11;;;;;;;7.00;2.65;;;;;;;;;;5090546;28;20086;-69
2023/08/06 12:39:38;;;;;;;8.07;2.90;;;;;;;;;;5072422;28;20028;-69
2023/08/06 12:42:05;;;;;;;12.13;3.55;;;;;;;;;;5090323;28;20119;-69
2023/08/06 12:44:31;;;;;;;6.18;2.92;;;;;;;;;;5090153;28;20032;-69
2023/08/06 12:46:57;;;;;;;5.35;2.60;;;;;;;;;;5089975;28;20075;-69
2023/08/06 12:49:24;;;;;;;5.35;3.22;;;;;;;;;;5077998;28;20028;-69
2023/08/06 12:51:51;;;;;;;7.22;2.80;;;;;;;;;;5069810;28;20028;-70
2023/08/06 12:54:18;;;;;;;8.35;2.90;;;;;;;;;;5069495;28;20055;-70
2023/08/06 12:56:45;;;;;;;9.13;3.40;;;;;;;;;;5051541;28;20040;-69
2023/08/06 12:59:12;;;;;;;11.25;3.28;;;;;;;;;;5069608;28;20044;-69
2023/08/06 13:01:38;;;;;;;15.30;3.40;;;;;;;;;;5069455;28;20132;-70
2023/08/06 13:04:04;;;;;;;8.43;2.85;;;;;;;;;;5069503;28;20090;-70
2023/08/06 13:06:35;;;;;;;8.23;3.00;;;;;;;;;;5069376;28;20055;-70
2023/08/06 13:09:02;;;;;;;6.68;3.13;;;;;;;;;;5070033;28;20469;-70
2023/08/06 13:11:28;;;;;;;5.45;3.05;;;;;;;;;;5070501;28;20082;-70
2023/08/06 13:13:54;;;;;;;4.80;3.25;;;;;;;;;;5069634;28;20485;-70
2023/08/06 13:16:20;;;;;;;7.53;3.33;;;;;;;;;;5072028;28;20024;-71
2023/08/06 13:18:46;;;;;;;8.18;3.75;;;;;;;;;;5055488;28;20056;-70
2023/08/06 13:21:13;;;;;;;8.32;3.58;;;;;;;;;;5073021;28;20037;-70
2023/08/06 13:23:39;;;;;;;4.82;3.30;;;;;;;;;;5055174;28;20032;-70
2023/08/06 13:26:05;;;;;;;4.90;3.40;;;;;;;;;;5072740;28;20040;-70
2023/08/06 13:28:32;;;;;;;9.48;4.07;;;;;;;;;;5073147;28;20075;-69
2023/08/06 13:30:58;;;;;;;9.82;4.10;;;;;;;;;;5072758;28;20055;-70
2023/08/06 13:33:24;;;;;;;7.35;4.45;;;;;;;;;;5073083;28;20044;-69
2023/08/06 13:35:50;;;;;;;9.57;3.90;;;;;;;;;;5055244;28;20067;-70
2023/08/06 13:38:16;;;;;;;9.23;3.70;;;;;;;;;;5055417;28;20067;-70
2023/08/06 13:40:44;;;;;;;6.65;3.63;;;;;;;;;;5073004;28;20047;-70
2023/08/06 13:43:10;;;;;;;6.43;4.00;;;;;;;;;;5073092;28;20083;-69
2023/08/06 13:45:37;;;;;;;9.75;4.05;;;;;;;;;;5072278;28;20421;-70
2023/08/06 13:48:04;;;;;;;7.45;4.22;;;;;;;;;;5073016;28;20436;-70
2023/08/06 13:50:30;;;;;;;7.63;4.03;;;;;;;;;;5072851;28;20028;-70
2023/08/06 13:52:56;;;;;;;7.03;3.80;;;;;;;;;;5055004;28;20070;-69
2023/08/06 13:55:22;;;;;;;7.60;3.65;;;;;;;;;;5072381;28;20127;-69
2023/08/06 13:57:49;;;;;;;7.00;3.67;;;;;;;;;;5069722;28;20039;-70
2023/08/06 14:00:15;;;;;;;10.07;4.97;;;;;;;;;;5074830;28;20062;-69
2023/08/06 14:02:44;;;;;;;6.65;3.75;;;;;;;;;;5074772;28;20133;-70
2023/08/06 14:05:10;;;;;;;10.38;3.60;;;;;;;;;;5092335;28;20032;-70
2023/08/06 14:07:36;;;;;;;7.80;4.25;;;;;;;;;;5092113;28;20086;-70
2023/08/06 14:10:02;;;;;;;9.38;4.43;;;;;;;;;;5057710;28;20116;-70
2023/08/06 14:12:28;;;;;;;6.20;4.05;;;;;;;;;;5092756;28;20047;-70
2023/08/06 14:14:54;;;;;;;8.68;4.45;;;;;;;;;;5073867;28;20067;-70
2023/08/06 14:17:20;;;;;;;7.38;3.85;;;;;;;;;;5073925;28;20039;-70
2023/08/06 14:19:47;;;;;;;8.15;3.63;;;;;;;;;;5092390;28;20050;-72
2023/08/06 14:22:13;;;;;;;6.63;3.97;;;;;;;;;;5057610;28;20051;-70
2023/08/06 14:24:39;;;;;;;7.43;4.20;;;;;;;;;;5074355;28;20150;-70